Time;durP1;ratioP1;P1;durP2;ratioP2;P2;SDS_P1;SDS_P2;PMS_P1;PMS_P2;Temp;Humidity;BMP_temperature;BMP_pressure;BME280_temperature;BME280_humidity;BME280_pressure;Samples;Min_cycle;Max_cycle;Signal;HPM_P1;HPM_P2
2021/07/21 00:00:27;;;;;;;13.57;6.40;;;;;;;15.79;84.06;101850.44;5072724;28;20032;-73
2021/07/21 00:02:54;;;;;;;12.98;7.78;;;;;;;15.81;83.86;101837.66;5071306;28;20020;-73
2021/07/21 00:05:20;;;;;;;9.98;7.32;;;;;;;15.75;83.95;101881.38;5054558;28;20032;-74
2021/07/21 00:07:46;;;;;;;10.63;7.30;;;;;;;15.75;84.05;101841.00;5071156;28;20029;-73
2021/07/21 00:10:15;;;;;;;13.75;7.75;;;;;;;15.73;84.32;101859.19;5071494;28;20385;-74
2021/07/21 00:15:26;;;;;;;13.23;7.00;;;;;;;15.68;84.81;101821.13;5072243;28;20458;-74
2021/07/21 00:17:59;;;;;;;12.38;7.13;;;;;;;15.62;85.53;101836.13;5071033;28;20040;-73
2021/07/21 00:20:26;;;;;;;10.70;7.90;;;;;;;15.67;85.67;101841.00;5071451;28;20033;-73
2021/07/21 00:22:51;;;;;;;15.07;8.65;;;;;;;15.71;85.33;101810.03;5070816;28;20400;-73
2021/07/21 00:25:17;;;;;;;14.27;7.47;;;;;;;15.61;85.46;101805.66;5071180;28;20043;-74
2021/07/21 00:27:43;;;;;;;13.17;7.77;;;;;;;15.68;85.72;101805.81;5070917;28;20144;-73
2021/07/21 00:30:10;;;;;;;;;;;;;;;15.72;86.01;101811.75;5072585;28;20058;-73
2021/07/21 00:32:36;;;;;;;14.93;7.45;;;;;;;15.71;86.41;101805.53;5054072;28;19926;-74
2021/07/21 00:35:04;;;;;;;18.40;9.77;;;;;;;15.59;86.27;101791.53;5071778;28;20037;-73
2021/07/21 00:37:29;;;;;;;17.05;10.73;;;;;;;15.67;86.75;101793.38;5070533;28;20046;-73
2021/07/21 00:39:55;;;;;;;15.75;9.27;;;;;;;15.70;86.78;101808.34;5054138;28;20357;-74
2021/07/21 00:42:21;;;;;;;17.87;9.73;;;;;;;15.77;86.70;101798.59;5054289;28;20082;-73
2021/07/21 00:44:47;;;;;;;16.67;10.23;;;;;;;15.83;86.80;101831.06;5070634;28;20054;-73
2021/07/21 00:47:13;;;;;;;18.27;11.00;;;;;;;15.90;86.89;101804.31;5053480;28;20350;-73
2021/07/21 00:49:40;;;;;;;18.27;10.13;;;;;;;15.90;86.44;101798.09;5070509;28;20043;-73
2021/07/21 00:52:08;;;;;;;15.98;9.32;;;;;;;15.87;87.01;101844.19;5070558;28;20044;-74
2021/07/21 00:54:34;;;;;;;16.15;11.35;;;;;;;15.93;87.07;101817.41;5053816;28;20036;-73
2021/07/21 00:57:03;;;;;;;16.60;10.70;;;;;;;15.94;87.15;101811.00;5070290;28;20036;-73
2021/07/21 00:59:32;;;;;;;15.77;11.52;;;;;;;15.89;87.54;101805.31;5070464;28;20024;-73
2021/07/21 01:01:58;;;;;;;19.15;10.50;;;;;;;15.89;87.42;101802.59;5070439;28;20081;-74
2021/07/21 01:04:25;;;;;;;15.57;10.00;;;;;;;15.88;87.38;101790.16;5053562;28;20059;-73
2021/07/21 01:06:52;;;;;;;17.38;10.38;;;;;;;15.90;87.51;101777.38;5070229;28;20062;-74
2021/07/21 01:09:18;;;;;;;21.58;10.30;;;;;;;15.82;87.85;101807.84;5070321;28;20028;-74
2021/07/21 01:12:26;;;;;;;16.33;10.18;;;;;;;15.79;88.07;101794.72;5070227;28;20136;-73
2021/07/21 01:15:08;;;;;;;17.35;10.48;;;;;;;15.75;87.91;101779.91;5068512;28;20475;-73
2021/07/21 01:17:52;;;;;;;19.75;11.70;;;;;;;15.78;88.11;101789.50;5052813;28;20361;-74
2021/07/21 01:20:46;;;;;;;14.38;9.98;;;;;;;15.87;87.87;101828.88;5070161;28;20488;-74
2021/07/21 01:23:30;;;;;;;15.52;10.00;;;;;;;15.82;87.92;101783.59;5070974;28;20041;-74
2021/07/21 01:26:26;;;;;;;16.23;9.73;;;;;;;15.76;87.83;101780.78;5070635;28;20431;-74
2021/07/21 01:28:54;;;;;;;17.52;10.57;;;;;;;15.73;87.94;101764.94;5071048;28;20537;-74
2021/07/21 01:31:30;;;;;;;16.17;9.73;;;;;;;15.63;88.07;101765.94;5069700;28;20033;-73
2021/07/21 01:33:57;;;;;;;20.40;11.18;;;;;;;15.65;88.24;101770.34;5070954;28;20101;-73
2021/07/21 01:36:28;;;;;;;21.63;11.27;;;;;;;15.56;88.24;101769.50;5052859;28;20040;-74
2021/07/21 01:39:03;;;;;;;18.77;10.43;;;;;;;15.59;88.54;101796.94;5053440;28;20039;-74
2021/07/21 01:41:33;;;;;;;19.00;8.83;;;;;;;15.62;88.82;101796.56;5069741;28;20021;-74
2021/07/21 01:44:21;;;;;;;18.40;10.30;;;;;;;15.61;88.59;101780.59;5069583;28;20087;-74
2021/07/21 01:46:52;;;;;;;16.55;10.27;;;;;;;15.55;88.40;101787.50;5069852;28;20499;-74
2021/07/21 01:49:20;;;;;;;19.63;9.63;;;;;;;15.64;88.28;101823.34;5069797;28;20036;-74
2021/07/21 01:51:48;;;;;;;14.70;9.68;;;;;;;15.67;88.46;101800.63;5069370;28;20027;-74
2021/07/21 01:54:17;;;;;;;16.88;9.40;;;;;;;15.70;88.36;101802.97;5070421;28;20098;-74
2021/07/21 01:56:58;;;;;;;16.30;9.30;;;;;;;15.73;88.32;101800.81;5069218;28;20031;-74
2021/07/21 01:59:25;;;;;;;16.90;9.93;;;;;;;15.66;88.37;101796.22;5068426;28;20432;-74
2021/07/21 02:02:05;;;;;;;18.23;8.50;;;;;;;15.72;88.26;101784.81;5069192;28;20489;-74
2021/07/21 02:04:46;;;;;;;16.77;8.80;;;;;;;15.73;88.62;101791.88;5054702;28;20060;-74
2021/07/21 02:07:12;;;;;;;12.80;8.45;;;;;;;15.72;88.35;101790.19;5052523;28;20493;-74
2021/07/21 02:09:41;;;;;;;15.90;8.77;;;;;;;15.78;88.25;101786.81;5052963;28;20059;-74
2021/07/21 02:12:10;;;;;;;19.90;9.05;;;;;;;15.71;88.14;101789.38;5053039;28;20052;-74
2021/07/21 02:14:36;;;;;;;14.10;8.35;;;;;;;15.80;87.92;101765.94;5052732;28;20424;-74
2021/07/21 02:17:11;;;;;;;13.88;7.85;;;;;;;15.79;87.92;101761.59;5068928;28;20143;-74
2021/07/21 02:19:43;;;;;;;13.02;8.70;;;;;;;15.72;88.26;101792.91;5069504;28;20123;-74
2021/07/21 02:22:18;;;;;;;18.42;8.40;;;;;;;15.71;88.16;101762.44;5069290;28;20475;-74
2021/07/21 02:24:52;;;;;;;16.42;8.60;;;;;;;15.61;88.22;101754.50;5069072;28;20044;-74
2021/07/21 02:27:25;;;;;;;12.55;9.38;;;;;;;15.63;88.37;101755.19;5069519;28;20111;-74
2021/07/21 02:29:53;;;;;;;15.23;8.07;;;;;;;15.54;88.68;101758.88;5052368;28;20025;-74
2021/07/21 02:32:29;;;;;;;14.68;8.98;;;;;;;15.54;88.86;101764.28;5068830;28;20078;-74
2021/07/21 02:34:59;;;;;;;12.35;8.48;;;;;;;15.58;89.00;101767.47;5052527;28;20039;-74
2021/07/21 02:37:26;;;;;;;14.13;8.48;;;;;;;15.53;88.92;101769.84;5069763;28;20047;-74
2021/07/21 02:39:53;;;;;;;13.40;7.33;;;;;;;15.51;88.99;101794.22;5069096;28;20457;-74
2021/07/21 02:42:19;;;;;;;;;;;;;;;15.55;88.75;101778.59;5070194;28;20031;-74
2021/07/21 02:44:48;;;;;;;13.95;9.32;;;;;;;15.51;88.75;101753.84;5069959;28;20300;-74
2021/07/21 02:47:16;;;;;;;14.63;7.47;;;;;;;15.42;88.72;101773.72;5068075;28;20174;-74
2021/07/21 02:49:45;;;;;;;9.88;6.90;;;;;;;15.49;88.78;101823.16;5052516;28;20410;-74
2021/07/21 02:52:22;;;;;;;13.82;8.25;;;;;;;15.52;88.80;101781.59;5069737;28;20526;-74
2021/07/21 02:55:10;;;;;;;14.27;8.65;;;;;;;15.48;88.79;101774.91;5068664;28;20358;-74
2021/07/21 02:57:47;;;;;;;12.43;7.72;;;;;;;15.49;88.92;101817.78;5068501;28;20614;-73
2021/07/21 03:00:16;;;;;;;13.73;7.80;;;;;;;15.50;89.14;101818.59;5068867;28;20060;-74
2021/07/21 03:02:51;;;;;;;18.77;7.88;;;;;;;15.53;88.58;101819.13;5068882;28;20324;-74
2021/07/21 03:05:19;;;;;;;12.95;7.50;;;;;;;15.55;88.84;101838.63;5069582;28;20032;-74
2021/07/21 03:07:58;;;;;;;12.10;7.18;;;;;;;15.58;88.53;101799.78;5053432;28;20033;-74
2021/07/21 03:10:26;;;;;;;15.13;7.95;;;;;;;15.60;88.42;101809.34;5068569;28;20127;-74
2021/07/21 03:13:22;;;;;;;18.70;7.78;;;;;;;15.61;88.41;101800.25;5065511;28;20102;-74
2021/07/21 03:15:52;;;;;;;12.05;8.07;;;;;;;15.65;88.42;101805.31;5069279;28;20067;-74
2021/07/21 03:18:24;;;;;;;13.65;7.63;;;;;;;15.71;88.27;101802.84;5052345;28;20044;-74
2021/07/21 03:20:54;;;;;;;12.30;7.82;;;;;;;15.73;87.93;101805.34;5068673;28;20032;-74
2021/07/21 03:23:25;;;;;;;14.73;7.20;;;;;;;15.67;88.24;101804.16;5052046;28;20031;-74
2021/07/21 03:26:14;;;;;;;13.15;7.20;;;;;;;15.61;88.10;101811.03;5054330;28;20048;-74
2021/07/21 03:28:42;;;;;;;13.32;7.28;;;;;;;15.50;88.23;101792.56;5068373;28;20458;-75
2021/07/21 03:31:09;;;;;;;10.57;6.95;;;;;;;15.67;88.09;101808.69;5069335;28;20046;-74
2021/07/21 03:33:38;;;;;;;14.32;7.10;;;;;;;15.73;87.90;101805.34;5051783;28;20040;-74
2021/07/21 03:36:09;;;;;;;11.20;7.43;;;;;;;15.73;87.13;101802.63;5068990;28;20037;-74
2021/07/21 03:38:55;;;;;;;14.13;7.00;;;;;;;15.69;87.63;101822.81;5068660;28;20051;-74
2021/07/21 03:41:35;;;;;;;13.30;7.13;;;;;;;15.62;87.33;101788.50;5071744;28;20032;-74
2021/07/21 03:44:03;;;;;;;14.38;7.20;;;;;;;15.63;87.28;101792.84;5071809;28;20535;-73
2021/07/21 03:46:29;;;;;;;14.90;6.90;;;;;;;15.63;87.06;101817.09;5054406;28;20056;-74
2021/07/21 03:48:57;;;;;;;11.50;6.75;;;;;;;15.61;86.78;101777.91;5072930;28;20438;-74
2021/07/21 03:51:39;;;;;;;14.32;6.75;;;;;;;15.62;86.53;101780.44;5072268;28;20042;-74
2021/07/21 03:54:25;;;;;;;13.73;6.82;;;;;;;15.63;86.72;101782.09;5072205;28;20134;-74
2021/07/21 03:57:07;;;;;;;13.13;6.65;;;;;;;15.61;86.53;101778.72;5071473;28;20432;-74
2021/07/21 03:59:37;;;;;;;14.48;7.30;;;;;;;15.64;86.54;101785.66;5055465;28;20029;-74
2021/07/21 04:02:08;;;;;;;9.65;5.15;;;;;;;15.70;86.29;101798.44;5072245;28;20032;-74
2021/07/21 04:04:38;;;;;;;13.73;6.10;;;;;;;15.65;85.87;101791.88;5072360;28;20430;-74
2021/07/21 04:07:06;;;;;;;12.88;6.72;;;;;;;15.69;85.83;101791.34;5071018;28;20021;-74
2021/07/21 04:09:38;;;;;;;12.85;7.35;;;;;;;15.66;85.72;101793.53;5071604;28;20546;-74
2021/07/21 04:12:08;;;;;;;9.10;6.35;;;;;;;15.71;86.28;101783.13;5071119;28;20031;-74
2021/07/21 04:14:50;;;;;;;13.60;6.32;;;;;;;15.59;86.41;101796.94;5071244;28;20024;-74
2021/07/21 04:17:37;;;;;;;11.45;6.00;;;;;;;15.60;86.74;101809.34;5071011;28;20036;-74
2021/07/21 04:20:10;;;;;;;13.57;6.47;;;;;;;15.61;86.39;101796.75;5071456;28;20036;-74
2021/07/21 04:22:39;;;;;;;10.32;6.18;;;;;;;15.60;85.36;101785.13;5071003;28;20115;-74
2021/07/21 04:25:09;;;;;;;13.43;6.65;;;;;;;15.60;85.99;101820.13;5054678;28;20051;-74
2021/07/21 04:27:38;;;;;;;11.10;6.45;;;;;;;15.82;84.84;101797.06;5054221;28;20047;-74
2021/07/21 04:30:15;;;;;;;15.85;6.75;;;;;;;15.87;84.85;101799.25;5072285;28;20105;-74
2021/07/21 04:32:43;;;;;;;13.00;6.55;;;;;;;15.89;84.50;101801.78;5054344;28;20075;-74
2021/07/21 04:35:12;;;;;;;12.07;5.43;;;;;;;15.90;84.00;101795.41;5070710;28;20024;-74
2021/07/21 04:37:43;;;;;;;8.52;5.38;;;;;;;15.79;83.06;101802.81;5054573;28;20497;-74
2021/07/21 04:40:12;;;;;;;11.57;5.25;;;;;;;15.83;82.99;101814.09;5070919;28;20036;-74
2021/07/21 04:42:56;;;;;;;16.95;5.72;;;;;;;15.89;82.96;101818.75;5056570;28;20029;-74
2021/07/21 04:45:22;;;;;;;10.50;6.23;;;;;;;15.94;82.68;101816.41;5071106;28;20185;-74
2021/07/21 04:47:49;;;;;;;15.13;6.53;;;;;;;15.99;82.75;101822.13;5053659;28;20036;-74
2021/07/21 04:50:20;;;;;;;10.18;5.95;;;;;;;16.03;82.65;101812.66;5070651;28;20377;-74
2021/07/21 04:52:48;;;;;;;8.98;5.47;;;;;;;15.99;83.60;101835.59;5069793;28;20032;-73
2021/07/21 04:55:14;;;;;;;10.93;5.50;;;;;;;16.23;82.46;101823.06;5070579;28;20054;-74
2021/07/21 04:57:42;;;;;;;9.98;6.00;;;;;;;16.39;81.25;101820.31;5053484;28;20040;-74
2021/07/21 05:00:16;;;;;;;13.85;6.72;;;;;;;16.54;81.70;101831.19;5070533;28;20381;-74
2021/07/21 05:03:01;;;;;;;8.43;5.53;;;;;;;16.71;80.88;101829.25;5070523;28;20377;-74
2021/07/21 05:05:28;;;;;;;8.00;5.38;;;;;;;16.92;80.40;101836.75;5071257;28;20394;-74
2021/07/21 05:07:58;;;;;;;10.73;5.25;;;;;;;17.09;79.24;101848.28;5053969;28;20067;-74
2021/07/21 05:10:25;;;;;;;12.02;5.63;;;;;;;16.94;79.84;101825.78;5070276;28;20135;-74
2021/07/21 05:12:50;;;;;;;12.93;4.85;;;;;;;16.98;79.73;101837.91;5053294;28;20059;-75
2021/07/21 05:15:19;;;;;;;9.75;4.63;;;;;;;16.63;79.32;101829.31;5070051;28;20028;-74
2021/07/21 05:17:46;;;;;;;10.40;5.32;;;;;;;16.55;80.20;101835.59;5069735;28;20488;-74
2021/07/21 05:20:18;;;;;;;9.25;5.03;;;;;;;16.74;79.40;101838.84;5071126;28;20031;-74
2021/07/21 05:22:54;;;;;;;9.83;5.90;;;;;;;16.78;79.34;101834.78;5054423;28;20055;-74
2021/07/21 05:25:20;;;;;;;9.85;4.65;;;;;;;17.05;77.77;101846.97;5053263;28;20597;-79
2021/07/21 05:28:04;;;;;;;7.25;5.20;;;;;;;16.90;78.54;101844.19;5069528;28;20105;-78
2021/07/21 05:30:29;;;;;;;7.55;5.28;;;;;;;16.79;78.70;101852.69;5070089;28;20043;-78
2021/07/21 05:33:03;;;;;;;13.93;5.65;;;;;;;16.80;78.57;101884.84;5069213;28;20370;-77
2021/07/21 05:35:30;;;;;;;9.00;6.30;;;;;;;16.62;79.81;101846.47;5052989;28;20684;-77
2021/07/21 05:38:07;;;;;;;7.57;5.05;;;;;;;16.61;79.04;101848.34;5068151;28;20056;-74
2021/07/21 05:40:33;;;;;;;14.18;5.97;;;;;;;16.44;80.24;101847.56;5068031;28;20039;-74
2021/07/21 05:43:03;;;;;;;10.55;5.15;;;;;;;16.36;80.39;101835.97;5051712;28;20036;-74
2021/07/21 05:45:34;;;;;;;8.27;5.18;;;;;;;16.28;80.76;101839.56;5051388;28;20450;-78
2021/07/21 05:48:02;;;;;;;8.00;4.75;;;;;;;16.42;80.77;101846.06;5067887;28;20024;-78
2021/07/21 05:50:32;;;;;;;10.40;5.30;;;;;;;16.53;80.57;101847.53;5052063;28;20369;-77
2021/07/21 05:52:59;;;;;;;13.43;5.75;;;;;;;16.54;80.30;101857.31;5069106;28;20028;-78
2021/07/21 05:55:40;;;;;;;7.68;5.53;;;;;;;16.64;78.99;101860.63;5054569;28;20373;-78
2021/07/21 05:58:08;;;;;;;9.77;4.70;;;;;;;16.63;78.68;101858.97;5052941;28;20056;-78
2021/07/21 06:00:35;;;;;;;12.18;5.57;;;;;;;16.57;79.63;101855.09;5052951;28;20412;-78
2021/07/21 06:03:03;;;;;;;11.10;5.32;;;;;;;16.88;79.19;101863.25;5052843;28;20112;-77
2021/07/21 06:05:58;;;;;;;7.47;4.85;;;;;;;18.44;72.93;101896.22;5032515;28;20474;-78
2021/07/21 06:08:43;;;;;;;7.00;4.15;;;;;;;19.16;68.02;101881.97;5069682;28;20459;-78
2021/07/21 06:11:19;;;;;;;8.10;3.90;;;;;;;19.01;68.91;101865.78;5070219;28;20343;-78
2021/07/21 06:13:45;;;;;;;6.13;3.78;;;;;;;19.99;64.13;101902.16;5052658;28;20032;-77
2021/07/21 06:16:13;;;;;;;8.38;3.92;;;;;;;19.70;64.90;101884.19;5068585;28;20065;-78
2021/07/21 06:18:39;;;;;;;8.10;4.22;;;;;;;18.90;67.10;101864.41;5052448;28;20124;-77
2021/07/21 06:21:06;;;;;;;8.10;3.60;;;;;;;19.08;66.69;101869.41;5052772;28;20029;-78
2021/07/21 06:23:33;;;;;;;8.73;4.10;;;;;;;18.75;68.57;101872.53;5052748;28;20036;-78
2021/07/21 06:26:00;;;;;;;7.32;3.70;;;;;;;18.81;67.37;101870.94;5068574;28;20114;-78
2021/07/21 06:28:50;;;;;;;5.57;3.53;;;;;;;18.89;66.39;101873.53;5069116;28;20024;-78
2021/07/21 06:31:17;;;;;;;7.20;4.53;;;;;;;17.93;68.63;101851.00;5068885;28;20032;-78
2021/07/21 06:33:43;;;;;;;11.07;5.10;;;;;;;17.63;70.53;101853.63;5069030;28;20086;-78
2021/07/21 06:36:10;;;;;;;9.30;4.45;;;;;;;17.48;71.49;101856.25;5068385;28;20037;-78
2021/07/21 06:38:38;;;;;;;5.93;4.05;;;;;;;17.50;70.99;101866.88;5069049;28;20374;-78
2021/07/21 06:41:17;;;;;;;9.27;3.83;;;;;;;17.32;72.46;101867.19;5068704;28;20046;-78
2021/07/21 06:43:43;;;;;;;7.05;4.43;;;;;;;17.22;73.19;101859.31;5052199;28;20119;-78
2021/07/21 06:46:23;;;;;;;11.13;5.47;;;;;;;17.31;73.17;101873.59;5067922;28;20378;-78
2021/07/21 06:49:03;;;;;;;8.70;4.07;;;;;;;17.51;72.96;101874.81;5054375;28;20174;-78
2021/07/21 06:51:29;;;;;;;9.90;4.65;;;;;;;18.02;70.39;101887.72;5051959;28;20123;-77
2021/07/21 06:53:55;;;;;;;7.85;3.95;;;;;;;18.16;70.84;101888.75;5052244;28;20028;-78
2021/07/21 06:56:21;;;;;;;5.60;4.13;;;;;;;18.60;67.59;101909.56;5069490;28;20021;-78
2021/07/21 06:58:59;;;;;;;6.68;4.88;;;;;;;19.01;66.57;101902.81;5054002;28;20047;-77
2021/07/21 07:01:26;;;;;;;7.93;4.47;;;;;;;18.62;66.61;101896.69;5068539;28;20362;-77
2021/07/21 07:04:10;;;;;;;9.13;3.88;;;;;;;18.41;66.48;101896.63;5069860;28;20047;-76
2021/07/21 07:06:55;;;;;;;9.57;4.60;;;;;;;18.05;68.13;101883.78;5068878;28;20105;-78
2021/07/21 07:09:39;;;;;;;7.40;4.57;;;;;;;18.01;67.20;101880.63;5069279;28;20087;-79
2021/07/21 07:12:28;;;;;;;7.72;4.85;;;;;;;18.61;66.34;101903.13;5057265;28;20173;-77
2021/07/21 07:14:53;;;;;;;14.10;4.47;;;;;;;18.71;65.89;101902.84;5069507;28;20033;-78
2021/07/21 07:17:18;;;;;;;16.47;4.47;;;;;;;19.04;63.51;101905.16;5072884;28;20969;-79
2021/07/21 07:19:44;;;;;;;5.70;4.43;;;;;;;19.44;63.22;101921.84;5072500;28;20028;-78
2021/07/21 07:22:09;;;;;;;7.73;4.07;;;;;;;20.41;61.23;101929.31;5072042;28;20074;-81
2021/07/21 07:24:34;;;;;;;8.80;4.50;;;;;;;20.82;57.69;101937.53;5055504;28;20599;-78
2021/07/21 07:27:02;;;;;;;6.77;4.30;;;;;;;21.41;57.41;101946.94;5073013;28;20032;-78
2021/07/21 07:29:27;;;;;;;9.32;4.60;;;;;;;20.83;57.18;101925.63;5072888;28;20036;-79
2021/07/21 07:31:52;;;;;;;5.87;4.17;;;;;;;20.13;57.68;101910.38;5071963;28;20075;-78
2021/07/21 07:34:19;;;;;;;15.10;5.13;;;;;;;19.58;61.39;101901.97;5072954;28;20032;-79
2021/07/21 07:36:45;;;;;;;8.38;4.78;;;;;;;19.14;60.36;101889.44;5055197;28;20547;-79
2021/07/21 07:39:12;;;;;;;8.25;4.40;;;;;;;19.72;60.48;101911.94;5071703;28;20090;-78
2021/07/21 07:41:38;;;;;;;5.53;3.67;;;;;;;20.61;57.33;101933.03;5071956;28;20400;-77
2021/07/21 07:44:05;;;;;;;7.60;4.68;;;;;;;21.34;55.31;101937.91;5072334;28;20086;-78
2021/07/21 07:46:32;;;;;;;8.13;3.67;;;;;;;21.23;53.29;101930.34;5071524;28;20068;-78
2021/07/21 07:48:58;;;;;;;9.85;4.20;;;;;;;20.43;56.07;101908.28;5071784;28;20036;-77
2021/07/21 07:51:24;;;;;;;9.50;4.43;;;;;;;20.16;56.71;101905.41;5055036;28;20093;-77
2021/07/21 07:53:51;;;;;;;6.28;4.40;;;;;;;20.18;58.04;101908.75;5071429;28;20607;-77
2021/07/21 07:56:16;;;;;;;;;;;;;;;20.38;57.44;101921.59;5071802;28;20449;-78
2021/07/21 07:58:41;;;;;;;;;;;;;;;20.24;57.60;101910.66;5072212;28;19912;-78
2021/07/21 08:01:07;;;;;;;6.50;4.10;;;;;;;20.97;54.52;101918.38;5055054;28;19935;-78
2021/07/21 08:03:32;;;;;;;8.73;3.77;;;;;;;20.86;54.92;101913.50;5072508;28;20035;-78
2021/07/21 08:05:59;;;;;;;5.07;3.57;;;;;;;20.45;56.94;101893.47;5054558;28;20040;-78
2021/07/21 08:08:26;;;;;;;8.68;4.70;;;;;;;20.30;57.65;101897.34;5072606;28;20036;-77
2021/07/21 08:10:52;;;;;;;5.05;3.80;;;;;;;19.93;58.88;101886.66;5072482;28;20058;-77
2021/07/21 08:13:19;;;;;;;;;;;;;;;20.45;58.29;101908.91;5071836;28;20369;-77
2021/07/21 08:15:46;;;;;;;9.52;5.32;;;;;;;20.00;57.64;101889.44;5054214;28;19916;-77
2021/07/21 08:18:12;;;;;;;9.40;5.28;;;;;;;20.43;57.48;101900.13;5072459;28;20438;-77
2021/07/21 08:20:38;;;;;;;7.65;4.50;;;;;;;20.09;58.32;101901.81;5071038;28;20032;-77
2021/07/21 08:23:03;;;;;;;8.35;4.10;;;;;;;19.80;58.71;101881.97;5072244;28;20032;-78
2021/07/21 08:25:28;;;;;;;10.13;5.27;;;;;;;19.21;59.18;101865.97;5054193;28;20043;-77
2021/07/21 08:27:57;;;;;;;8.23;4.90;;;;;;;19.06;60.09;101876.88;5072060;28;20099;-78
2021/07/21 08:30:23;;;;;;;8.63;5.63;;;;;;;19.03;60.04;101876.41;5071083;28;20193;-77
2021/07/21 08:32:52;;;;;;;8.38;4.72;;;;;;;19.61;62.04;101893.44;5071123;28;20569;-77
2021/07/21 08:35:20;;;;;;;11.60;6.40;;;;;;;19.62;60.26;101889.72;5070632;28;20032;-77
2021/07/21 08:37:46;;;;;;;6.43;4.60;;;;;;;20.33;58.28;101914.06;5070850;28;20032;-77
2021/07/21 08:40:13;;;;;;;11.77;4.80;;;;;;;21.02;57.11;101924.03;5071026;28;20036;-77
2021/07/21 08:42:39;;;;;;;6.93;4.97;;;;;;;21.03;55.58;101917.56;5071872;28;20446;-78
2021/07/21 08:45:06;;;;;;;10.27;4.90;;;;;;;20.32;56.43;101893.41;5071879;28;20063;-77
2021/07/21 08:47:32;;;;;;;7.25;5.07;;;;;;;19.84;57.59;101882.44;5069835;28;20045;-77
2021/07/21 08:49:57;;;;;;;9.07;5.13;;;;;;;19.80;59.01;101890.09;5072013;28;20043;-77
2021/07/21 08:52:24;;;;;;;14.02;5.63;;;;;;;19.85;60.36;101888.69;5070574;28;20369;-77
2021/07/21 08:54:52;;;;;;;10.50;5.22;;;;;;;19.67;60.36;101883.72;5071690;28;20544;-77
2021/07/21 08:57:18;;;;;;;10.77;5.20;;;;;;;19.37;60.57;101876.56;5070463;28;20039;-77
2021/07/21 08:59:44;;;;;;;9.23;4.93;;;;;;;19.11;59.82;101877.13;5071718;28;20112;-76
2021/07/21 09:02:11;;;;;;;8.93;5.32;;;;;;;19.00;60.82;101877.63;5071147;28;20036;-77
2021/07/21 09:04:38;;;;;;;14.30;5.90;;;;;;;19.40;62.52;101900.53;5070601;28;20032;-77
2021/07/21 09:07:05;;;;;;;9.95;5.18;;;;;;;19.19;60.70;101900.53;5053552;28;20468;-78
2021/07/21 09:09:31;;;;;;;11.48;5.20;;;;;;;19.29;62.22;101911.03;5053801;28;20059;-77
2021/07/21 09:11:57;;;;;;;12.67;6.30;;;;;;;19.26;64.93;101904.16;5070259;28;20438;-77
2021/07/21 09:14:23;;;;;;;8.70;5.88;;;;;;;19.00;61.71;101896.56;5071259;28;20956;-77
2021/07/21 09:17:09;;;;;;;9.73;5.82;;;;;;;18.85;62.17;101896.59;5070002;28;20040;-77
2021/07/21 09:19:41;;;;;;;10.90;6.32;;;;;;;18.89;66.51;101899.75;5070379;28;20040;-77
2021/07/21 09:22:16;;;;;;;10.68;5.47;;;;;;;18.95;64.39;101889.03;5069936;28;20024;-77
2021/07/21 09:24:43;;;;;;;12.10;5.75;;;;;;;19.13;60.12;101895.91;5070261;28;20106;-77
2021/07/21 09:27:09;;;;;;;10.63;6.78;;;;;;;19.18;61.79;101890.75;5069523;28;20461;-77
2021/07/21 09:29:34;;;;;;;8.93;6.10;;;;;;;19.09;64.75;101889.19;5070210;28;20032;-77
2021/07/21 09:32:02;;;;;;;9.00;5.45;;;;;;;19.04;49.38;101907.88;5069885;28;20029;-77
2021/07/21 09:34:29;;;;;;;8.32;6.43;;;;;;;19.18;63.30;101913.22;5069714;28;20369;-77
2021/07/21 09:37:03;;;;;;;8.63;5.30;;;;;;;19.90;61.02;101926.88;5069332;28;20377;-77
2021/07/21 09:39:37;;;;;;;10.20;6.53;;;;;;;20.12;60.86;101933.09;5069231;28;20686;-77
2021/07/21 09:42:05;;;;;;;13.85;6.32;;;;;;;20.00;59.03;101927.38;5069185;28;20107;-77
2021/07/21 09:44:36;;;;;;;9.82;5.55;;;;;;;19.46;60.13;101912.47;5068786;28;20110;-77
2021/07/21 09:47:15;;;;;;;7.85;6.32;;;;;;;19.82;60.19;101927.84;5068542;28;20040;-77
2021/07/21 09:49:42;;;;;;;16.25;13.02;;;;;;;19.72;60.10;101927.34;5051978;28;20050;-77
2021/07/21 09:52:14;;;;;;;16.27;7.03;;;;;;;19.77;58.17;101920.31;5068746;28;20339;-77
2021/07/21 09:54:39;;;;;;;16.45;14.45;;;;;;;19.62;59.66;101916.81;5069552;28;20036;-77
2021/07/21 09:57:12;;;;;;;13.40;8.18;;;;;;;20.16;60.98;101929.81;5068652;28;20078;-77
2021/07/21 09:59:38;;;;;;;9.68;6.28;;;;;;;20.29;59.85;101918.19;5068707;28;20039;-77
2021/07/21 10:02:17;;;;;;;11.77;6.17;;;;;;;19.78;59.14;101911.16;5051829;28;20523;-76
2021/07/21 10:04:46;;;;;;;14.10;6.53;;;;;;;19.74;57.41;101904.44;5068240;28;20045;-77
2021/07/21 10:07:42;;;;;;;8.80;5.88;;;;;;;19.96;58.25;101907.94;5068280;28;20040;-77
2021/07/21 10:10:24;;;;;;;9.05;5.93;;;;;;;20.31;56.42;101918.00;5069219;28;20036;-77
2021/07/21 10:13:10;;;;;;;10.32;5.60;;;;;;;19.98;57.63;101900.47;5051717;28;20040;-76
2021/07/21 10:15:35;;;;;;;10.55;6.65;;;;;;;20.12;59.16;101916.84;5069022;28;20047;-76
2021/07/21 10:18:06;;;;;;;7.90;6.10;;;;;;;20.21;58.52;101913.78;5069134;28;20028;-76
2021/07/21 10:20:32;;;;;;;7.28;5.85;;;;;;;20.13;59.65;101907.66;5067990;28;20036;-77
2021/07/21 10:22:57;;;;;;;11.20;6.33;;;;;;;19.68;57.29;101882.69;5068424;28;20036;-76
2021/07/21 10:25:24;;;;;;;10.98;6.75;;;;;;;19.92;57.79;101900.41;5067903;28;20748;-76
2021/07/21 10:27:50;;;;;;;11.20;6.95;;;;;;;20.18;56.81;101902.47;5067936;28;20040;-77
2021/07/21 10:30:16;;;;;;;13.52;6.88;;;;;;;19.99;55.70;101899.44;5069015;28;20032;-77
2021/07/21 10:32:42;;;;;;;14.05;7.60;;;;;;;20.00;56.52;101898.41;5069040;28;20029;-77
2021/07/21 10:35:09;;;;;;;12.57;7.03;;;;;;;20.59;56.18;101909.84;5067700;28;20450;-77
2021/07/21 10:37:36;;;;;;;13.85;8.63;;;;;;;20.72;55.15;101904.50;5051068;28;20032;-77
2021/07/21 10:40:05;;;;;;;9.45;6.63;;;;;;;20.40;54.99;101897.84;5031693;28;1054988;-77
2021/07/21 10:42:32;;;;;;;9.45;7.05;;;;;;;20.52;54.63;101884.53;5068686;28;20466;-76
2021/07/21 10:45:25;;;;;;;21.27;15.50;;;;;;;20.44;55.10;101890.97;5068953;28;20036;-77
2021/07/21 10:47:56;;;;;;;14.13;9.88;;;;;;;20.52;55.47;101893.50;5069659;28;20142;-77
2021/07/21 10:50:43;;;;;;;9.40;6.80;;;;;;;20.14;55.76;101879.53;5072302;28;20054;-77
2021/07/21 10:53:28;;;;;;;14.75;10.60;;;;;;;19.99;57.89;101879.63;5073060;28;20044;-76
2021/07/21 11:01:26;;;;;;;12.75;8.63;;;;;;;20.47;57.74;101895.16;5073532;28;20056;-76
2021/07/21 11:04:03;;;;;;;11.48;9.63;;;;;;;20.41;57.72;101889.47;5072635;28;20043;-77
2021/07/21 11:06:50;;;;;;;11.32;7.70;;;;;;;20.49;57.62;101885.78;5072255;28;20040;-76
2021/07/21 11:09:24;;;;;;;10.80;8.23;;;;;;;20.46;54.22;101878.03;5073768;28;20112;-77
2021/07/21 11:11:54;;;;;;;12.93;7.50;;;;;;;20.93;56.96;101891.84;5055446;28;20128;-76
2021/07/21 11:14:22;;;;;;;8.55;6.97;;;;;;;20.80;54.16;101877.19;5073321;28;20373;-76
2021/07/21 11:16:53;;;;;;;9.27;7.28;;;;;;;20.69;52.88;101883.19;5055294;28;20028;-77
2021/07/21 11:19:50;;;;;;;10.65;7.35;;;;;;;21.30;51.72;101898.63;5073414;28;20036;-77
2021/07/21 11:22:18;;;;;;;9.43;6.78;;;;;;;22.11;49.50;101908.53;5072122;28;20065;-77
2021/07/21 11:25:14;;;;;;;9.52;6.60;;;;;;;21.60;49.76;101882.81;5073154;28;20032;-78
2021/07/21 11:27:52;;;;;;;10.55;6.90;;;;;;;21.44;53.00;101878.63;5071739;28;20123;-76
2021/07/21 11:30:30;;;;;;;9.55;6.65;;;;;;;21.33;51.27;101881.94;5072401;28;20075;-76
2021/07/21 11:32:55;;;;;;;12.23;7.28;;;;;;;20.71;52.82;101869.41;5072796;28;20037;-78
2021/07/21 11:35:39;;;;;;;9.87;7.03;;;;;;;20.62;53.34;101864.16;5071844;28;20472;-77
2021/07/21 11:38:17;;;;;;;9.38;7.38;;;;;;;20.54;52.92;101861.59;5071678;28;20311;-77
2021/07/21 11:40:44;;;;;;;10.43;6.93;;;;;;;20.62;52.92;101868.75;5055305;28;20032;-77
2021/07/21 11:43:33;;;;;;;11.32;7.82;;;;;;;21.26;53.56;101876.47;5071586;28;20362;-76
2021/07/21 11:46:03;;;;;;;8.35;6.28;;;;;;;21.20;53.58;101871.03;5071214;28;20051;-76
2021/07/21 11:48:31;;;;;;;8.02;6.53;;;;;;;21.27;52.24;101872.72;5072602;28;20040;-77